# Tabular Observed and Forecast Hydrograph Information
#
# Location: South Fork Tule River - Reservation Boundary (TVRC1)
#
# File Generation Time: 05/07/2026 at 07:30 AM PDT
# Data Interval: 1 Hour
#
# Most Recent Date & Time of Maximum Observed: 05/06/2026 at 12:00 AM PDT
# Maximum Observed Stage: 3.36 Feet
# Maximum Observed Flow: 56 cfs
#
# Earliest Date & Time of Maximum Forecast: 05/07/2026 at 08:00 AM PDT
# Maximum Forecast Stage: 3.22 Feet
# Maximum Forecast Flow: 45 cfs
#
# OBSERVED
#
# Date & Time (Local) Stage (Feet) Flow (cfs) Trend Observed Status
# ---------------------------------------------------------------------------------
05/02/2026 07 AM PDT 3.28 50 Not Applicable
05/02/2026 08 AM PDT 3.27 49 - Not Applicable
05/02/2026 09 AM PDT 3.28 50 + Not Applicable
05/02/2026 10 AM PDT 3.26 48 - Not Applicable
05/02/2026 11 AM PDT 3.27 49 + Not Applicable
05/02/2026 12 PM PDT 3.28 50 + Not Applicable
05/02/2026 01 PM PDT 3.28 50 0 Not Applicable
05/02/2026 02 PM PDT 3.27 49 - Not Applicable
05/02/2026 03 PM PDT 3.27 49 0 Not Applicable
05/02/2026 04 PM PDT 3.27 49 0 Not Applicable
05/02/2026 05 PM PDT 3.26 48 - Not Applicable
05/02/2026 06 PM PDT 3.27 49 + Not Applicable
05/02/2026 07 PM PDT 3.27 49 0 Not Applicable
05/02/2026 08 PM PDT 3.24 46 - Not Applicable
05/02/2026 09 PM PDT 3.25 47 + Not Applicable
05/02/2026 10 PM PDT 3.24 46 - Not Applicable
05/02/2026 11 PM PDT 3.24 46 0 Not Applicable
05/03/2026 12 AM PDT 3.24 46 0 Not Applicable
05/03/2026 01 AM PDT 3.23 46 - Not Applicable
05/03/2026 02 AM PDT 3.23 46 0 Not Applicable
05/03/2026 03 AM PDT 3.23 46 0 Not Applicable
05/03/2026 04 AM PDT 3.22 45 - Not Applicable
05/03/2026 05 AM PDT 3.24 46 + Not Applicable
05/03/2026 06 AM PDT 3.24 46 0 Not Applicable
05/03/2026 07 AM PDT 3.22 45 - Not Applicable
05/03/2026 08 AM PDT 3.25 47 + Not Applicable
05/03/2026 09 AM PDT 3.23 46 - Not Applicable
05/03/2026 10 AM PDT 3.25 47 + Not Applicable
05/03/2026 11 AM PDT 3.26 48 + Not Applicable
05/03/2026 12 PM PDT 3.25 47 - Not Applicable
05/03/2026 01 PM PDT 3.25 47 0 Not Applicable
05/03/2026 02 PM PDT 3.25 47 0 Not Applicable
05/03/2026 03 PM PDT 3.25 47 0 Not Applicable
05/03/2026 04 PM PDT 3.24 46 - Not Applicable
05/03/2026 05 PM PDT 3.25 47 + Not Applicable
05/03/2026 06 PM PDT 3.25 47 0 Not Applicable
05/03/2026 07 PM PDT 3.25 47 0 Not Applicable
05/03/2026 08 PM PDT 3.24 46 - Not Applicable
05/03/2026 09 PM PDT 3.24 46 0 Not Applicable
05/03/2026 10 PM PDT 3.24 46 0 Not Applicable
05/03/2026 11 PM PDT 3.23 46 - Not Applicable
05/04/2026 12 AM PDT 3.23 46 0 Not Applicable
05/04/2026 01 AM PDT 3.22 45 - Not Applicable
05/04/2026 02 AM PDT 3.23 46 + Not Applicable
05/04/2026 03 AM PDT 3.24 46 + Not Applicable
05/04/2026 04 AM PDT 3.20 43 - Not Applicable
05/04/2026 05 AM PDT 3.24 46 + Not Applicable
05/04/2026 06 AM PDT 3.24 46 0 Not Applicable
05/04/2026 07 AM PDT 3.24 46 0 Not Applicable
05/04/2026 08 AM PDT 3.24 46 0 Not Applicable
05/04/2026 09 AM PDT 3.24 46 0 Not Applicable
05/04/2026 10 AM PDT 3.23 46 - Not Applicable
05/04/2026 11 AM PDT 3.24 46 + Not Applicable
05/04/2026 12 PM PDT 3.24 46 0 Not Applicable
05/04/2026 01 PM PDT 3.24 46 0 Not Applicable
05/04/2026 02 PM PDT 3.25 47 + Not Applicable
05/04/2026 03 PM PDT 3.24 46 - Not Applicable
05/04/2026 04 PM PDT 3.25 47 + Not Applicable
05/04/2026 05 PM PDT 3.26 48 + Not Applicable
05/04/2026 06 PM PDT 3.27 49 + Not Applicable
05/04/2026 07 PM PDT 3.26 48 - Not Applicable
05/04/2026 08 PM PDT 3.28 50 + Not Applicable
05/04/2026 09 PM PDT 3.28 50 0 Not Applicable
05/04/2026 10 PM PDT 3.28 50 0 Not Applicable
05/04/2026 11 PM PDT 3.30 51 + Not Applicable
05/05/2026 12 AM PDT 3.28 50 - Not Applicable
05/05/2026 01 AM PDT 3.27 49 - Not Applicable
05/05/2026 02 AM PDT 3.28 50 + Not Applicable
05/05/2026 03 AM PDT 3.31 52 + Not Applicable
05/05/2026 04 AM PDT 3.31 52 0 Not Applicable
05/05/2026 05 AM PDT 3.28 50 - Not Applicable
05/05/2026 06 AM PDT 3.30 51 + Not Applicable
05/05/2026 07 AM PDT 3.28 50 - Not Applicable
05/05/2026 08 AM PDT 3.28 50 0 Not Applicable
05/05/2026 09 AM PDT 3.28 50 0 Not Applicable
05/05/2026 10 AM PDT 3.30 51 + Not Applicable
05/05/2026 11 AM PDT 3.27 49 - Not Applicable
05/05/2026 12 PM PDT 3.27 49 0 Not Applicable
05/05/2026 01 PM PDT 3.27 49 0 Not Applicable
05/05/2026 02 PM PDT 3.30 51 + Not Applicable
05/05/2026 03 PM PDT 3.30 51 0 Not Applicable
05/05/2026 04 PM PDT 3.32 53 + Not Applicable
05/05/2026 05 PM PDT 3.31 52 - Not Applicable
05/05/2026 06 PM PDT 3.31 52 0 Not Applicable
05/05/2026 07 PM PDT 3.33 54 + Not Applicable
05/05/2026 08 PM PDT 3.33 54 0 Not Applicable
05/05/2026 09 PM PDT 3.32 53 - Not Applicable
05/05/2026 10 PM PDT 3.33 54 + Not Applicable
05/05/2026 11 PM PDT 3.35 55 + Not Applicable
05/06/2026 12 AM PDT 3.36 56 + Not Applicable
05/06/2026 01 AM PDT 3.33 54 - Not Applicable
05/06/2026 02 AM PDT 3.34 55 + Not Applicable
05/06/2026 03 AM PDT 3.31 52 - Not Applicable
05/06/2026 04 AM PDT 3.29 50 - Not Applicable
05/06/2026 05 AM PDT 3.28 50 - Not Applicable
05/06/2026 06 AM PDT 3.31 52 + Not Applicable
05/06/2026 07 AM PDT 3.31 52 0 Not Applicable
05/06/2026 08 AM PDT 3.29 50 - Not Applicable
05/06/2026 09 AM PDT 3.28 50 - Not Applicable
05/06/2026 10 AM PDT 3.26 48 - Not Applicable
05/06/2026 11 AM PDT 3.28 50 + Not Applicable
05/06/2026 12 PM PDT 3.27 49 - Not Applicable
05/06/2026 01 PM PDT 3.28 50 + Not Applicable
05/06/2026 02 PM PDT 3.27 49 - Not Applicable
05/06/2026 03 PM PDT 3.27 49 0 Not Applicable
05/06/2026 04 PM PDT 3.26 48 - Not Applicable
05/06/2026 05 PM PDT 3.26 48 0 Not Applicable
05/06/2026 06 PM PDT 3.25 47 - Not Applicable
05/06/2026 07 PM PDT 3.25 47 0 Not Applicable
05/06/2026 08 PM PDT 3.25 47 0 Not Applicable
05/06/2026 09 PM PDT 3.24 46 - Not Applicable
05/06/2026 10 PM PDT 3.21 44 - Not Applicable
05/06/2026 11 PM PDT 3.23 46 + Not Applicable
05/07/2026 12 AM PDT 3.22 45 - Not Applicable
05/07/2026 01 AM PDT 3.22 45 0 Not Applicable
05/07/2026 02 AM PDT 3.22 45 0 Not Applicable
05/07/2026 03 AM PDT 3.22 45 0 Not Applicable
05/07/2026 04 AM PDT 3.22 45 0 Not Applicable
05/07/2026 05 AM PDT 3.23 46 + Not Applicable
05/07/2026 06 AM PDT 3.22 45 - Not Applicable
05/07/2026 07 AM PDT 3.22 45 0 Not Applicable
#
# FORECAST
#
# Date & Time (Local) Stage (Feet) Flow (cfs) Trend Forecast Status
# ---------------------------------------------------------------------------------
05/07/2026 08 AM PDT 3.22 45 Not Applicable
05/07/2026 09 AM PDT 3.22 45 0 Not Applicable
05/07/2026 10 AM PDT 3.22 45 0 Not Applicable
05/07/2026 11 AM PDT 3.21 44 - Not Applicable
05/07/2026 12 PM PDT 3.21 44 0 Not Applicable
05/07/2026 01 PM PDT 3.21 44 0 Not Applicable
05/07/2026 02 PM PDT 3.21 44 0 Not Applicable
05/07/2026 03 PM PDT 3.21 44 0 Not Applicable
05/07/2026 04 PM PDT 3.21 44 0 Not Applicable
05/07/2026 05 PM PDT 3.21 44 0 Not Applicable
05/07/2026 06 PM PDT 3.21 44 0 Not Applicable
05/07/2026 07 PM PDT 3.21 44 0 Not Applicable
05/07/2026 08 PM PDT 3.21 44 0 Not Applicable
05/07/2026 09 PM PDT 3.21 44 0 Not Applicable
05/07/2026 10 PM PDT 3.21 44 0 Not Applicable
05/07/2026 11 PM PDT 3.20 43 - Not Applicable
05/08/2026 12 AM PDT 3.20 43 0 Not Applicable
05/08/2026 01 AM PDT 3.20 43 0 Not Applicable
05/08/2026 02 AM PDT 3.20 43 0 Not Applicable
05/08/2026 03 AM PDT 3.20 43 0 Not Applicable
05/08/2026 04 AM PDT 3.20 43 0 Not Applicable
05/08/2026 05 AM PDT 3.20 43 0 Not Applicable
05/08/2026 06 AM PDT 3.20 43 0 Not Applicable
05/08/2026 07 AM PDT 3.20 43 0 Not Applicable
05/08/2026 08 AM PDT 3.20 43 0 Not Applicable
05/08/2026 09 AM PDT 3.19 43 - Not Applicable
05/08/2026 10 AM PDT 3.19 43 0 Not Applicable
05/08/2026 11 AM PDT 3.19 43 0 Not Applicable
05/08/2026 12 PM PDT 3.19 43 0 Not Applicable
05/08/2026 01 PM PDT 3.19 43 0 Not Applicable
05/08/2026 02 PM PDT 3.19 43 0 Not Applicable
05/08/2026 03 PM PDT 3.19 43 0 Not Applicable
05/08/2026 04 PM PDT 3.19 43 0 Not Applicable
05/08/2026 05 PM PDT 3.19 43 0 Not Applicable
05/08/2026 06 PM PDT 3.19 43 0 Not Applicable
05/08/2026 07 PM PDT 3.19 43 0 Not Applicable
05/08/2026 08 PM PDT 3.19 43 0 Not Applicable
05/08/2026 09 PM PDT 3.18 42 - Not Applicable
05/08/2026 10 PM PDT 3.18 42 0 Not Applicable
05/08/2026 11 PM PDT 3.18 42 0 Not Applicable
05/09/2026 12 AM PDT 3.18 42 0 Not Applicable
05/09/2026 01 AM PDT 3.18 42 0 Not Applicable
05/09/2026 02 AM PDT 3.18 42 0 Not Applicable
05/09/2026 03 AM PDT 3.18 42 0 Not Applicable
05/09/2026 04 AM PDT 3.18 42 0 Not Applicable
05/09/2026 05 AM PDT 3.18 42 0 Not Applicable
05/09/2026 06 AM PDT 3.18 42 0 Not Applicable
05/09/2026 07 AM PDT 3.17 41 - Not Applicable
05/09/2026 08 AM PDT 3.17 41 0 Not Applicable
05/09/2026 09 AM PDT 3.17 41 0 Not Applicable
05/09/2026 10 AM PDT 3.17 41 0 Not Applicable
05/09/2026 11 AM PDT 3.17 41 0 Not Applicable
05/09/2026 12 PM PDT 3.17 41 0 Not Applicable
05/09/2026 01 PM PDT 3.17 41 0 Not Applicable
05/09/2026 02 PM PDT 3.17 41 0 Not Applicable
05/09/2026 03 PM PDT 3.17 41 0 Not Applicable
05/09/2026 04 PM PDT 3.17 41 0 Not Applicable
05/09/2026 05 PM PDT 3.17 41 0 Not Applicable
05/09/2026 06 PM PDT 3.17 41 0 Not Applicable
05/09/2026 07 PM PDT 3.17 41 0 Not Applicable
05/09/2026 08 PM PDT 3.17 41 0 Not Applicable
05/09/2026 09 PM PDT 3.16 40 - Not Applicable
05/09/2026 10 PM PDT 3.16 40 0 Not Applicable
05/09/2026 11 PM PDT 3.16 40 0 Not Applicable
05/10/2026 12 AM PDT 3.16 40 0 Not Applicable
05/10/2026 01 AM PDT 3.16 40 0 Not Applicable
05/10/2026 02 AM PDT 3.16 40 0 Not Applicable
05/10/2026 03 AM PDT 3.16 40 0 Not Applicable
05/10/2026 04 AM PDT 3.16 40 0 Not Applicable
05/10/2026 05 AM PDT 3.16 40 0 Not Applicable
05/10/2026 06 AM PDT 3.16 40 0 Not Applicable
05/10/2026 07 AM PDT 3.16 40 0 Not Applicable
05/10/2026 08 AM PDT 3.15 40 - Not Applicable
05/10/2026 09 AM PDT 3.15 40 0 Not Applicable
05/10/2026 10 AM PDT 3.15 40 0 Not Applicable
05/10/2026 11 AM PDT 3.15 40 0 Not Applicable
05/10/2026 12 PM PDT 3.15 40 0 Not Applicable
05/10/2026 01 PM PDT 3.15 40 0 Not Applicable
05/10/2026 02 PM PDT 3.15 40 0 Not Applicable
05/10/2026 03 PM PDT 3.15 40 0 Not Applicable
05/10/2026 04 PM PDT 3.15 40 0 Not Applicable
05/10/2026 05 PM PDT 3.15 40 0 Not Applicable
05/10/2026 06 PM PDT 3.15 40 0 Not Applicable
05/10/2026 07 PM PDT 3.15 40 0 Not Applicable
05/10/2026 08 PM PDT 3.15 40 0 Not Applicable
05/10/2026 09 PM PDT 3.14 39 - Not Applicable
05/10/2026 10 PM PDT 3.14 39 0 Not Applicable
05/10/2026 11 PM PDT 3.14 39 0 Not Applicable
05/11/2026 12 AM PDT 3.14 39 0 Not Applicable
05/11/2026 01 AM PDT 3.14 39 0 Not Applicable
05/11/2026 02 AM PDT 3.14 39 0 Not Applicable
05/11/2026 03 AM PDT 3.14 39 0 Not Applicable
05/11/2026 04 AM PDT 3.14 39 0 Not Applicable
05/11/2026 05 AM PDT 3.14 39 0 Not Applicable
05/11/2026 06 AM PDT 3.14 39 0 Not Applicable
05/11/2026 07 AM PDT 3.14 39 0 Not Applicable
05/11/2026 08 AM PDT 3.14 39 0 Not Applicable
05/11/2026 09 AM PDT 3.13 38 - Not Applicable
05/11/2026 10 AM PDT 3.13 38 0 Not Applicable
05/11/2026 11 AM PDT 3.13 38 0 Not Applicable
05/11/2026 12 PM PDT 3.13 38 0 Not Applicable
05/11/2026 01 PM PDT 3.13 38 0 Not Applicable
05/11/2026 02 PM PDT 3.13 38 0 Not Applicable
05/11/2026 03 PM PDT 3.13 38 0 Not Applicable
05/11/2026 04 PM PDT 3.13 38 0 Not Applicable
05/11/2026 05 PM PDT 3.13 38 0 Not Applicable
05/11/2026 06 PM PDT 3.13 38 0 Not Applicable
05/11/2026 07 PM PDT 3.13 38 0 Not Applicable
05/11/2026 08 PM PDT 3.13 38 0 Not Applicable
05/11/2026 09 PM PDT 3.13 38 0 Not Applicable
05/11/2026 10 PM PDT 3.12 38 - Not Applicable
05/11/2026 11 PM PDT 3.12 38 0 Not Applicable
05/12/2026 12 AM PDT 3.12 38 0 Not Applicable
05/12/2026 01 AM PDT 3.12 38 0 Not Applicable
05/12/2026 02 AM PDT 3.12 38 0 Not Applicable
05/12/2026 03 AM PDT 3.12 38 0 Not Applicable
05/12/2026 04 AM PDT 3.12 38 0 Not Applicable
05/12/2026 05 AM PDT 3.12 38 0 Not Applicable
#
# NOTE 1: Stages are rounded to the nearest hundredth (.01) of a foot.
# NOTE 2: Flows are rounded to the nearest (1) cfs.
# NOTE 3: Trends are determined using hourly change in unrounded stage and flow.
# NOTE 4: Maximum Values are determined using unrounded stage and flow.
|